sensor_id;sensor_type;location;lat;lon;timestamp;P1;P2;P0
76045;PMS7003;64741;41.730;44.788;2023-10-09T00:01:09;3.6;2.6;1.2
76045;PMS7003;64741;41.730;44.788;2023-10-09T00:06:09;2.8;2.6;1.6
76045;PMS7003;64741;41.730;44.788;2023-10-09T00:11:07;3.6;2.6;2.2
76045;PMS7003;64741;41.730;44.788;2023-10-09T00:16:15;4.2;3.4;2.4
76045;PMS7003;64741;41.730;44.788;2023-10-09T00:21:05;4.4;3.8;3.4
76045;PMS7003;64741;41.730;44.788;2023-10-09T00:25:49;4.8;3.3;2.5
76045;PMS7003;64741;41.730;44.788;2023-10-09T00:31:09;5.4;4.8;3.4
76045;PMS7003;64741;41.730;44.788;2023-10-09T00:36:09;6.8;5;3.8
76045;PMS7003;64741;41.730;44.788;2023-10-09T00:41:15;4.2;3.2;2.4
76045;PMS7003;64741;41.730;44.788;2023-10-09T00:46:09;4;3.4;3
76045;PMS7003;64741;41.730;44.788;2023-10-09T00:51:03;4.4;3.6;2.8
76045;PMS7003;64741;41.730;44.788;2023-10-09T00:56:09;3.8;3.4;2.8
76045;PMS7003;64741;41.730;44.788;2023-10-09T01:01:09;3.8;3.4;2.6
76045;PMS7003;64741;41.730;44.788;2023-10-09T01:06:15;3.6;3.2;2.4
76045;PMS7003;64741;41.730;44.788;2023-10-09T01:11:10;4.2;3.2;2
76045;PMS7003;64741;41.730;44.788;2023-10-09T01:16:03;3.8;2.8;2.4
76045;PMS7003;64741;41.730;44.788;2023-10-09T01:21:09;3.2;3;1.8
76045;PMS7003;64741;41.730;44.788;2023-10-09T01:26:07;4;2.8;2.4
76045;PMS7003;64741;41.730;44.788;2023-10-09T01:31:15;3.8;3;2.2
76045;PMS7003;64741;41.730;44.788;2023-10-09T01:35:49;4;3.2;2
76045;PMS7003;64741;41.730;44.788;2023-10-09T01:41:03;2.2;2;1.2
76045;PMS7003;64741;41.730;44.788;2023-10-09T01:46:09;3.4;2.2;1.6
76045;PMS7003;64741;41.730;44.788;2023-10-09T01:51:13;3;2;1.6
76045;PMS7003;64741;41.730;44.788;2023-10-09T01:56:13;2;1.6;1.2
76045;PMS7003;64741;41.730;44.788;2023-10-09T02:01:09;3;2.2;1.6
76045;PMS7003;64741;41.730;44.788;2023-10-09T02:06:03;1.8;1.8;1.4
76045;PMS7003;64741;41.730;44.788;2023-10-09T02:11:09;3.2;3;1.8
76045;PMS7003;64741;41.730;44.788;2023-10-09T02:16:09;3.6;3.4;2.6
76045;PMS7003;64741;41.730;44.788;2023-10-09T02:21:15;4.8;4.4;3
76045;PMS7003;64741;41.730;44.788;2023-10-09T02:26:10;3.8;3.6;2.6
76045;PMS7003;64741;41.730;44.788;2023-10-09T02:31:09;4.4;3.8;2.8
76045;PMS7003;64741;41.730;44.788;2023-10-09T02:36:09;4.2;3.8;3
76045;PMS7003;64741;41.730;44.788;2023-10-09T02:41:09;4.8;3.8;2.8
76045;PMS7003;64741;41.730;44.788;2023-10-09T02:46:15;4.6;3.8;2.8
76045;PMS7003;64741;41.730;44.788;2023-10-09T02:51:09;5.6;3.8;2.8
76045;PMS7003;64741;41.730;44.788;2023-10-09T02:56:03;6.2;5.2;4.2
76045;PMS7003;64741;41.730;44.788;2023-10-09T03:01:10;5.4;4.6;3.8
76045;PMS7003;64741;41.730;44.788;2023-10-09T03:06:07;6.4;5.4;4.2
76045;PMS7003;64741;41.730;44.788;2023-10-09T03:11:15;7;5.4;3.8
76045;PMS7003;64741;41.730;44.788;2023-10-09T03:16:09;6.2;5.2;3.6
76045;PMS7003;64741;41.730;44.788;2023-10-09T03:21:03;5.2;4.4;3
76045;PMS7003;64741;41.730;44.788;2023-10-09T03:26:09;6.8;5.2;4
76045;PMS7003;64741;41.730;44.788;2023-10-09T03:31:03;4.6;3.8;2.8
76045;PMS7003;64741;41.730;44.788;2023-10-09T03:36:13;4.4;3.6;2.6
76045;PMS7003;64741;41.730;44.788;2023-10-09T03:41:09;4;3.2;2
76045;PMS7003;64741;41.730;44.788;2023-10-09T03:46:04;3.8;3.6;2.6
76045;PMS7003;64741;41.730;44.788;2023-10-09T03:51:09;4.4;3.2;2.4
76045;PMS7003;64741;41.730;44.788;2023-10-09T03:56:09;4;3.2;2
76045;PMS7003;64741;41.730;44.788;2023-10-09T04:01:16;4.4;3.2;2.6
76045;PMS7003;64741;41.730;44.788;2023-10-09T04:06:09;4.6;3.4;2.4
76045;PMS7003;64741;41.730;44.788;2023-10-09T04:11:03;3.4;2.4;2
76045;PMS7003;64741;41.730;44.788;2023-10-09T04:16:09;3.8;2.8;2
76045;PMS7003;64741;41.730;44.788;2023-10-09T04:21:09;3.4;2.8;1.4
76045;PMS7003;64741;41.730;44.788;2023-10-09T04:26:13;4.6;3.2;2.2
76045;PMS7003;64741;41.730;44.788;2023-10-09T04:31:09;3.8;3.2;2
76045;PMS7003;64741;41.730;44.788;2023-10-09T04:36:03;4;2.2;1.4
76045;PMS7003;64741;41.730;44.788;2023-10-09T04:41:15;3;2;1.4
76045;PMS7003;64741;41.730;44.788;2023-10-09T04:46:09;3.2;2;1.2
76045;PMS7003;64741;41.730;44.788;2023-10-09T04:51:15;3.4;2.8;2
76045;PMS7003;64741;41.730;44.788;2023-10-09T04:56:09;5;4.2;2.8
76045;PMS7003;64741;41.730;44.788;2023-10-09T05:01:03;5.6;4.8;3.8
76045;PMS7003;64741;41.730;44.788;2023-10-09T05:06:15;3.8;3.4;2
76045;PMS7003;64741;41.730;44.788;2023-10-09T05:11:09;5.8;4.4;3.2
76045;PMS7003;64741;41.730;44.788;2023-10-09T05:16:14;4.6;4;3
76045;PMS7003;64741;41.730;44.788;2023-10-09T05:21:09;4;4;2.8
76045;PMS7003;64741;41.730;44.788;2023-10-09T05:26:01;4.6;3.4;2.4
76045;PMS7003;64741;41.730;44.788;2023-10-09T05:31:15;3.4;2.8;2.2
76045;PMS7003;64741;41.730;44.788;2023-10-09T05:36:09;3;2.3;2
76045;PMS7003;64741;41.730;44.788;2023-10-09T05:41:15;2.6;1.8;1.2
76045;PMS7003;64741;41.730;44.788;2023-10-09T05:45:49;3;2;1.4
76045;PMS7003;64741;41.730;44.788;2023-10-09T05:51:03;1.8;1.4;1
76045;PMS7003;64741;41.730;44.788;2023-10-09T05:56:13;2.6;2.6;1.6
76045;PMS7003;64741;41.730;44.788;2023-10-09T06:01:09;3.2;2.6;1.4
76045;PMS7003;64741;41.730;44.788;2023-10-09T06:06:13;2.2;2.2;1.6
76045;PMS7003;64741;41.730;44.788;2023-10-09T06:11:10;3.2;3;2.2
76045;PMS7003;64741;41.730;44.788;2023-10-09T06:16:03;9.8;8;6
76045;PMS7003;64741;41.730;44.788;2023-10-09T06:21:13;9.2;8.4;6.2
76045;PMS7003;64741;41.730;44.788;2023-10-09T06:26:11;10.2;8.8;6.8
76045;PMS7003;64741;41.730;44.788;2023-10-09T06:31:17;9.8;8.6;6.6
76045;PMS7003;64741;41.730;44.788;2023-10-09T06:36:11;7.8;7;5.2
76045;PMS7003;64741;41.730;44.788;2023-10-09T06:41:03;7.8;6.2;4.4
76045;PMS7003;64741;41.730;44.788;2023-10-09T06:46:15;6.8;6.8;5
76045;PMS7003;64741;41.730;44.788;2023-10-09T06:51:10;7.8;6;4.8
76045;PMS7003;64741;41.730;44.788;2023-10-09T06:56:17;7.8;6.4;5
76045;PMS7003;64741;41.730;44.788;2023-10-09T07:00:38;6;5.2;4
76045;PMS7003;64741;41.730;44.788;2023-10-09T07:06:04;7.4;5.8;4.6
76045;PMS7003;64741;41.730;44.788;2023-10-09T07:11:17;6.6;6;5
76045;PMS7003;64741;41.730;44.788;2023-10-09T07:16:11;6;5.8;4.2
76045;PMS7003;64741;41.730;44.788;2023-10-09T07:21:17;6;5;3.8
76045;PMS7003;64741;41.730;44.788;2023-10-09T07:26:11;5.6;5.2;4.2
76045;PMS7003;64741;41.730;44.788;2023-10-09T07:31:03;4.4;4;3.2
76045;PMS7003;64741;41.730;44.788;2023-10-09T07:36:17;3.8;3.6;2.8
76045;PMS7003;64741;41.730;44.788;2023-10-09T07:41:11;4.2;3.4;2
76045;PMS7003;64741;41.730;44.788;2023-10-09T07:46:18;3.8;2.8;1.8
76045;PMS7003;64741;41.730;44.788;2023-10-09T07:51:12;3.8;3.2;1.8
76045;PMS7003;64741;41.730;44.788;2023-10-09T07:56:03;3;2.4;1.8
76045;PMS7003;64741;41.730;44.788;2023-10-09T08:01:17;3.2;2.4;1.6
76045;PMS7003;64741;41.730;44.788;2023-10-09T08:06:12;2.4;2;1.4
76045;PMS7003;64741;41.730;44.788;2023-10-09T08:11:17;3.4;2.8;2
76045;PMS7003;64741;41.730;44.788;2023-10-09T08:16:09;3.4;3;2.2
76045;PMS7003;64741;41.730;44.788;2023-10-09T08:21:02;2.8;2;1
76045;PMS7003;64741;41.730;44.788;2023-10-09T08:26:18;23.8;20.4;15.4
76045;PMS7003;64741;41.730;44.788;2023-10-09T08:31:10;64.6;49.8;37
76045;PMS7003;64741;41.730;44.788;2023-10-09T08:36:15;61;48.6;34.2
76045;PMS7003;64741;41.730;44.788;2023-10-09T08:41:12;39.6;33.6;24.2
76045;PMS7003;64741;41.730;44.788;2023-10-09T08:46:03;21.8;20.4;15.4
76045;PMS7003;64741;41.730;44.788;2023-10-09T08:51:17;13.2;12.2;10
76045;PMS7003;64741;41.730;44.788;2023-10-09T08:56:12;10.2;9.4;7.8
76045;PMS7003;64741;41.730;44.788;2023-10-09T09:01:03;10.6;8.4;6.2
76045;PMS7003;64741;41.730;44.788;2023-10-09T09:06:18;6.8;5.8;5
76045;PMS7003;64741;41.730;44.788;2023-10-09T09:10:57;11.8;10.8;8.2
76045;PMS7003;64741;41.730;44.788;2023-10-09T09:16:01;28.8;25.2;18
76045;PMS7003;64741;41.730;44.788;2023-10-09T09:21:16;54.4;42.4;28
76045;PMS7003;64741;41.730;44.788;2023-10-09T09:26:11;53;42.4;29
76045;PMS7003;64741;41.730;44.788;2023-10-09T09:31:12;52.4;42;28
76045;PMS7003;64741;41.730;44.788;2023-10-09T09:36:11;51;40.2;27.4
76045;PMS7003;64741;41.730;44.788;2023-10-09T09:41:18;47;37;24.6
76045;PMS7003;64741;41.730;44.788;2023-10-09T09:46:11;39.6;33.6;23.4
76045;PMS7003;64741;41.730;44.788;2023-10-09T09:51:03;39.2;31.6;21.8
76045;PMS7003;64741;41.730;44.788;2023-10-09T09:56:15;36.6;30.8;21.4
76045;PMS7003;64741;41.730;44.788;2023-10-09T10:00:52;34.8;29.8;20.6
76045;PMS7003;64741;41.730;44.788;2023-10-09T10:05:59;29.4;24.2;17.8
76045;PMS7003;64741;41.730;44.788;2023-10-09T10:11:19;26.2;23.4;16.6
76045;PMS7003;64741;41.730;44.788;2023-10-09T10:16:12;24.2;20.6;15
76045;PMS7003;64741;41.730;44.788;2023-10-09T10:21:15;21;18.6;13.2
76045;PMS7003;64741;41.730;44.788;2023-10-09T10:26:17;19.6;17.2;12.2
76045;PMS7003;64741;41.730;44.788;2023-10-09T10:31:17;17.6;15;10.8
76045;PMS7003;64741;41.730;44.788;2023-10-09T10:36:11;15.6;13.2;9.8
76045;PMS7003;64741;41.730;44.788;2023-10-09T10:41:12;16.8;14.4;10.4
76045;PMS7003;64741;41.730;44.788;2023-10-09T10:46:18;23.6;19.8;14.6
76045;PMS7003;64741;41.730;44.788;2023-10-09T10:51:01;25;22;15.5
76045;PMS7003;64741;41.730;44.788;2023-10-09T10:56:00;25;21.2;14.4
76045;PMS7003;64741;41.730;44.788;2023-10-09T11:01:09;34.4;27.2;17.2
76045;PMS7003;64741;41.730;44.788;2023-10-09T11:06:09;38.8;30.2;18.6
76045;PMS7003;64741;41.730;44.788;2023-10-09T11:11:11;28;23.6;15.6
76045;PMS7003;64741;41.730;44.788;2023-10-09T11:16:04;24.4;20.2;12.6
76045;PMS7003;64741;41.730;44.788;2023-10-09T11:21:17;21.6;17.4;11.4
76045;PMS7003;64741;41.730;44.788;2023-10-09T11:26:07;13;10.6;7.6
76045;PMS7003;64741;41.730;44.788;2023-10-09T11:31:07;10.2;7.8;5.6
76045;PMS7003;64741;41.730;44.788;2023-10-09T11:36:18;7.6;6.6;4.6
76045;PMS7003;64741;41.730;44.788;2023-10-09T11:41:11;6.6;5.4;3.6
76045;PMS7003;64741;41.730;44.788;2023-10-09T11:46:07;6.4;5.6;3.8
76045;PMS7003;64741;41.730;44.788;2023-10-09T11:51:12;6.4;5;3.4
76045;PMS7003;64741;41.730;44.788;2023-10-09T11:56:12;6.6;4.8;3
76045;PMS7003;64741;41.730;44.788;2023-10-09T12:01:12;5.4;4;2.8
76045;PMS7003;64741;41.730;44.788;2023-10-09T12:06:09;4.8;3.8;2.4
76045;PMS7003;64741;41.730;44.788;2023-10-09T12:11:18;4.4;3.2;1.6
76045;PMS7003;64741;41.730;44.788;2023-10-09T12:16:11;2.8;2;1.2
76045;PMS7003;64741;41.730;44.788;2023-10-09T12:21:03;2.2;1.8;0.8
76045;PMS7003;64741;41.730;44.788;2023-10-09T12:26:17;2.4;2.4;1.6
76045;PMS7003;64741;41.730;44.788;2023-10-09T12:31:03;4;2.2;1.2
76045;PMS7003;64741;41.730;44.788;2023-10-09T12:36:03;2.2;1.8;0.6
76045;PMS7003;64741;41.730;44.788;2023-10-09T12:41:11;3.6;1.6;1
76045;PMS7003;64741;41.730;44.788;2023-10-09T12:46:11;1.2;1;0.6
76045;PMS7003;64741;41.730;44.788;2023-10-09T12:51:11;1.6;1;0.4
76045;PMS7003;64741;41.730;44.788;2023-10-09T12:56:11;1.2;0.8;0.2
76045;PMS7003;64741;41.730;44.788;2023-10-09T13:01:04;2;1;0.2
76045;PMS7003;64741;41.730;44.788;2023-10-09T13:06:11;1;1;0.8
76045;PMS7003;64741;41.730;44.788;2023-10-09T13:11:05;5.8;5.2;4.6
76045;PMS7003;64741;41.730;44.788;2023-10-09T13:16:18;6.2;6;5
76045;PMS7003;64741;41.730;44.788;2023-10-09T13:21:01;4.2;3.6;2.8
76045;PMS7003;64741;41.730;44.788;2023-10-09T13:26:18;3.4;2.4;1.8
76045;PMS7003;64741;41.730;44.788;2023-10-09T13:31:04;2.6;2.2;1.2
76045;PMS7003;64741;41.730;44.788;2023-10-09T13:36:04;2.2;1.6;1.2
76045;PMS7003;64741;41.730;44.788;2023-10-09T13:41:11;2.2;1.6;1
76045;PMS7003;64741;41.730;44.788;2023-10-09T13:46:12;1.8;0.8;0.4
76045;PMS7003;64741;41.730;44.788;2023-10-09T13:51:12;25;20;14
76045;PMS7003;64741;41.730;44.788;2023-10-09T13:55:57;51.6;40.8;27.2
76045;PMS7003;64741;41.730;44.788;2023-10-09T14:01:16;53;41.4;27.6
76045;PMS7003;64741;41.730;44.788;2023-10-09T14:06:11;45.8;36.4;25
76045;PMS7003;64741;41.730;44.788;2023-10-09T14:11:06;41.6;31.8;21.6
76045;PMS7003;64741;41.730;44.788;2023-10-09T14:16:15;33.6;28.6;19.2
76045;PMS7003;64741;41.730;44.788;2023-10-09T14:21:06;30.2;27;18.4
76045;PMS7003;64741;41.730;44.788;2023-10-09T14:25:51;23.8;21.8;15.6
76045;PMS7003;64741;41.730;44.788;2023-10-09T14:31:13;21.4;17.8;12.2
76045;PMS7003;64741;41.730;44.788;2023-10-09T14:36:13;20.2;16.6;11.8
76045;PMS7003;64741;41.730;44.788;2023-10-09T14:41:13;14.2;13;9.6
76045;PMS7003;64741;41.730;44.788;2023-10-09T14:46:14;11.8;10.2;7.4
76045;PMS7003;64741;41.730;44.788;2023-10-09T14:51:17;10.4;7.2;5.4
76045;PMS7003;64741;41.730;44.788;2023-10-09T14:56:13;7.4;4.4;3.2
76045;PMS7003;64741;41.730;44.788;2023-10-09T15:01:07;7;5.8;3.6
76045;PMS7003;64741;41.730;44.788;2023-10-09T15:06:18;3.4;2.8;1.8
76045;PMS7003;64741;41.730;44.788;2023-10-09T15:11:05;3.4;2.6;1.6
76045;PMS7003;64741;41.730;44.788;2023-10-09T15:16:05;2.6;2;1
76045;PMS7003;64741;41.730;44.788;2023-10-09T15:21:14;2;1.6;0.8
76045;PMS7003;64741;41.730;44.788;2023-10-09T15:26:13;2.4;1.2;0.4
76045;PMS7003;64741;41.730;44.788;2023-10-09T15:31:13;1.4;0.6;0.4
76045;PMS7003;64741;41.730;44.788;2023-10-09T15:36:14;1.8;0.6;0.2
76045;PMS7003;64741;41.730;44.788;2023-10-09T15:41:17;0;0;0
76045;PMS7003;64741;41.730;44.788;2023-10-09T15:46:14;0.6;0.2;0
76045;PMS7003;64741;41.730;44.788;2023-10-09T15:51:08;0.4;0;0
76045;PMS7003;64741;41.730;44.788;2023-10-09T15:56:18;0.5;0.3;0
76045;PMS7003;64741;41.730;44.788;2023-10-09T16:01:04;0.4;0;0
76045;PMS7003;64741;41.730;44.788;2023-10-09T16:06:04;0.4;0.2;0
76045;PMS7003;64741;41.730;44.788;2023-10-09T16:11:16;0.2;0;0
76045;PMS7003;64741;41.730;44.788;2023-10-09T16:16:14;0.4;0;0
76045;PMS7003;64741;41.730;44.788;2023-10-09T16:21:13;0.6;0.2;0.2
76045;PMS7003;64741;41.730;44.788;2023-10-09T16:26:14;2;1.4;1.2
76045;PMS7003;64741;41.730;44.788;2023-10-09T16:31:16;1.8;1.4;1
76045;PMS7003;64741;41.730;44.788;2023-10-09T16:36:14;2.4;1.4;0.8
76045;PMS7003;64741;41.730;44.788;2023-10-09T16:41:06;0.6;0.6;0.4
76045;PMS7003;64741;41.730;44.788;2023-10-09T16:46:16;17;15.6;11.4
76045;PMS7003;64741;41.730;44.788;2023-10-09T16:51:04;47.6;37.6;25.6
76045;PMS7003;64741;41.730;44.788;2023-10-09T16:56:04;56;43.6;28.6
76045;PMS7003;64741;41.730;44.788;2023-10-09T17:01:15;61;46.8;31
76045;PMS7003;64741;41.730;44.788;2023-10-09T17:06:14;59;46;31
76045;PMS7003;64741;41.730;44.788;2023-10-09T17:11:10;56.8;43.4;28.8
76045;PMS7003;64741;41.730;44.788;2023-10-09T17:16:14;53.8;41.4;27.8
76045;PMS7003;64741;41.730;44.788;2023-10-09T17:21:16;51.2;40;27
76045;PMS7003;64741;41.730;44.788;2023-10-09T17:26:14;45.4;36;23.6
76045;PMS7003;64741;41.730;44.788;2023-10-09T17:31:04;41.6;33.4;22.2
76045;PMS7003;64741;41.730;44.788;2023-10-09T17:35:56;39.2;31.8;21.6
76045;PMS7003;64741;41.730;44.788;2023-10-09T17:41:05;31.8;27.8;19.8
76045;PMS7003;64741;41.730;44.788;2023-10-09T17:46:02;30.8;26.4;18
76045;PMS7003;64741;41.730;44.788;2023-10-09T17:50:52;26.2;22.4;16
76045;PMS7003;64741;41.730;44.788;2023-10-09T17:55:52;24.4;21.2;14.2
76045;PMS7003;64741;41.730;44.788;2023-10-09T18:01:18;57.2;44;27.6
76045;PMS7003;64741;41.730;44.788;2023-10-09T18:06:14;84.2;66.2;40.8
76045;PMS7003;64741;41.730;44.788;2023-10-09T18:11:06;82.8;63.4;36.8
76045;PMS7003;64741;41.730;44.788;2023-10-09T18:16:14;76.2;59;36.8
76045;PMS7003;64741;41.730;44.788;2023-10-09T18:21:12;69.8;50.6;31.6
76045;PMS7003;64741;41.730;44.788;2023-10-09T18:26:16;55.6;41.2;24.6
76045;PMS7003;64741;41.730;44.788;2023-10-09T18:31:14;58.2;43.8;27.4
76045;PMS7003;64741;41.730;44.788;2023-10-09T18:36:06;50.6;39;25
76045;PMS7003;64741;41.730;44.788;2023-10-09T18:41:14;42.6;33.6;20.4
76045;PMS7003;64741;41.730;44.788;2023-10-09T18:46:14;36.6;29.8;18.2
76045;PMS7003;64741;41.730;44.788;2023-10-09T18:51:16;32.6;24.8;16
76045;PMS7003;64741;41.730;44.788;2023-10-09T18:56:14;20.6;17.2;12.4
76045;PMS7003;64741;41.730;44.788;2023-10-09T19:00:52;20;14.8;10.2
76045;PMS7003;64741;41.730;44.788;2023-10-09T19:06:14;18.6;14.4;9
76045;PMS7003;64741;41.730;44.788;2023-10-09T19:11:14;11.6;8.8;6.2
76045;PMS7003;64741;41.730;44.788;2023-10-09T19:16:14;8.6;6.6;4.2
76045;PMS7003;64741;41.730;44.788;2023-10-09T19:21:12;7.2;5.2;3.4
76045;PMS7003;64741;41.730;44.788;2023-10-09T19:25:58;5.2;3.6;2.4
76045;PMS7003;64741;41.730;44.788;2023-10-09T19:31:14;5.8;3.6;2
76045;PMS7003;64741;41.730;44.788;2023-10-09T19:36:12;4.8;3.4;2
76045;PMS7003;64741;41.730;44.788;2023-10-09T19:41:02;2.8;2.4;1.6
76045;PMS7003;64741;41.730;44.788;2023-10-09T19:46:14;2.8;1.8;1
76045;PMS7003;64741;41.730;44.788;2023-10-09T19:51:04;3.2;2;1.2
76045;PMS7003;64741;41.730;44.788;2023-10-09T19:56:12;2.2;1.4;0.8
76045;PMS7003;64741;41.730;44.788;2023-10-09T20:01:14;2;1.4;0.8
76045;PMS7003;64741;41.730;44.788;2023-10-09T20:06:16;1.4;1.2;0.6
76045;PMS7003;64741;41.730;44.788;2023-10-09T20:11:14;0.8;0.6;0
76045;PMS7003;64741;41.730;44.788;2023-10-09T20:16:06;0.8;0.2;0.2
76045;PMS7003;64741;41.730;44.788;2023-10-09T20:21:10;0.6;0.2;0
76045;PMS7003;64741;41.730;44.788;2023-10-09T20:26:14;0.8;0.6;0.2
76045;PMS7003;64741;41.730;44.788;2023-10-09T20:31:18;1.2;1;0.4
76045;PMS7003;64741;41.730;44.788;2023-10-09T20:36:14;0.2;0.2;0
76045;PMS7003;64741;41.730;44.788;2023-10-09T20:41:04;0.6;0.2;0
76045;PMS7003;64741;41.730;44.788;2023-10-09T20:46:14;0.8;0.6;0.2
76045;PMS7003;64741;41.730;44.788;2023-10-09T20:51:12;0;0;0
76045;PMS7003;64741;41.730;44.788;2023-10-09T20:56:18;0.6;0.4;0
76045;PMS7003;64741;41.730;44.788;2023-10-09T21:01:14;0.2;0;0
76045;PMS7003;64741;41.730;44.788;2023-10-09T21:06:04;0.6;0.4;0
76045;PMS7003;64741;41.730;44.788;2023-10-09T21:11:14;0;0;0
76045;PMS7003;64741;41.730;44.788;2023-10-09T21:16:14;0.6;0.4;0.2
76045;PMS7003;64741;41.730;44.788;2023-10-09T21:21:18;0.2;0.2;0
76045;PMS7003;64741;41.730;44.788;2023-10-09T21:26:14;0.4;0;0
76045;PMS7003;64741;41.730;44.788;2023-10-09T21:31:06;0.4;0.4;0
76045;PMS7003;64741;41.730;44.788;2023-10-09T21:35:27;0.6;0.2;0.2
76045;PMS7003;64741;41.730;44.788;2023-10-09T21:41:14;0;0;0
76045;PMS7003;64741;41.730;44.788;2023-10-09T21:46:18;0.6;0.4;0.2
76045;PMS7003;64741;41.730;44.788;2023-10-09T21:51:14;0.4;0;0
76045;PMS7003;64741;41.730;44.788;2023-10-09T21:56:06;0;0;0
76045;PMS7003;64741;41.730;44.788;2023-10-09T22:01:14;0.4;0;0
76045;PMS7003;64741;41.730;44.788;2023-10-09T22:06:14;0.4;0;0
76045;PMS7003;64741;41.730;44.788;2023-10-09T22:11:18;0;0;0
76045;PMS7003;64741;41.730;44.788;2023-10-09T22:16:14;0.4;0.4;0
76045;PMS7003;64741;41.730;44.788;2023-10-09T22:21:06;0.4;0.4;0.2
76045;PMS7003;64741;41.730;44.788;2023-10-09T22:26:18;0.4;0.2;0.2
76045;PMS7003;64741;41.730;44.788;2023-10-09T22:31:14;0;0;0
76045;PMS7003;64741;41.730;44.788;2023-10-09T22:36:18;0.4;0;0
76045;PMS7003;64741;41.730;44.788;2023-10-09T22:41:14;0;0;0
76045;PMS7003;64741;41.730;44.788;2023-10-09T22:46:06;0;0;0
76045;PMS7003;64741;41.730;44.788;2023-10-09T22:51:18;0;0;0
76045;PMS7003;64741;41.730;44.788;2023-10-09T22:56:14;0;0;0
76045;PMS7003;64741;41.730;44.788;2023-10-09T23:01:16;0.2;0;0
76045;PMS7003;64741;41.730;44.788;2023-10-09T23:06:14;0.6;0;0
76045;PMS7003;64741;41.730;44.788;2023-10-09T23:11:06;0.4;0;0
76045;PMS7003;64741;41.730;44.788;2023-10-09T23:16:16;0.4;0;0
76045;PMS7003;64741;41.730;44.788;2023-10-09T23:21:14;0.4;0.2;0
76045;PMS7003;64741;41.730;44.788;2023-10-09T23:26:18;0.2;0.2;0.2
76045;PMS7003;64741;41.730;44.788;2023-10-09T23:31:14;0.4;0.2;0
76045;PMS7003;64741;41.730;44.788;2023-10-09T23:35:50;0.2;0;0
76045;PMS7003;64741;41.730;44.788;2023-10-09T23:41:18;0.4;0.2;0
76045;PMS7003;64741;41.730;44.788;2023-10-09T23:46:14;0;0;0
76045;PMS7003;64741;41.730;44.788;2023-10-09T23:51:18;0.2;0.2;0
76045;PMS7003;64741;41.730;44.788;2023-10-09T23:56:14;0;0;0
